sensor_id;sensor_type;location;lat;lon;timestamp;P1;durP1;ratioP1;P2;durP2;ratioP2
40757;SDS011;26462;47.384;19.218;2023-02-18T00:01:31;27.25;;;12.48;;
40757;SDS011;26462;47.384;19.218;2023-02-18T00:03:59;30.92;;;12.15;;
40757;SDS011;26462;47.384;19.218;2023-02-18T00:06:31;27.48;;;11.15;;
40757;SDS011;26462;47.384;19.218;2023-02-18T00:09:00;22.70;;;10.48;;
40757;SDS011;26462;47.384;19.218;2023-02-18T00:11:32;21.63;;;11.70;;
40757;SDS011;26462;47.384;19.218;2023-02-18T00:14:03;26.52;;;11.52;;
40757;SDS011;26462;47.384;19.218;2023-02-18T00:16:31;23.45;;;10.00;;
40757;SDS011;26462;47.384;19.218;2023-02-18T00:19:00;19.73;;;8.75;;
40757;SDS011;26462;47.384;19.218;2023-02-18T00:21:31;19.05;;;8.77;;
40757;SDS011;26462;47.384;19.218;2023-02-18T00:23:59;19.67;;;9.07;;
40757;SDS011;26462;47.384;19.218;2023-02-18T00:26:27;20.80;;;9.60;;
40757;SDS011;26462;47.384;19.218;2023-02-18T00:28:54;20.27;;;11.00;;
40757;SDS011;26462;47.384;19.218;2023-02-18T00:31:26;22.63;;;10.57;;
40757;SDS011;26462;47.384;19.218;2023-02-18T00:33:58;16.13;;;8.65;;
40757;SDS011;26462;47.384;19.218;2023-02-18T00:36:26;15.55;;;8.45;;
40757;SDS011;26462;47.384;19.218;2023-02-18T00:38:56;23.02;;;9.40;;
40757;SDS011;26462;47.384;19.218;2023-02-18T00:41:25;19.17;;;8.27;;
40757;SDS011;26462;47.384;19.218;2023-02-18T00:43:54;15.93;;;8.25;;
40757;SDS011;26462;47.384;19.218;2023-02-18T00:46:22;13.30;;;7.25;;
40757;SDS011;26462;47.384;19.218;2023-02-18T00:48:51;10.13;;;5.85;;
40757;SDS011;26462;47.384;19.218;2023-02-18T00:51:19;10.93;;;5.32;;
40757;SDS011;26462;47.384;19.218;2023-02-18T00:53:47;12.10;;;5.72;;
40757;SDS011;26462;47.384;19.218;2023-02-18T00:56:15;9.07;;;5.15;;
40757;SDS011;26462;47.384;19.218;2023-02-18T00:58:43;9.02;;;4.15;;
40757;SDS011;26462;47.384;19.218;2023-02-18T01:01:10;8.98;;;3.85;;
40757;SDS011;26462;47.384;19.218;2023-02-18T01:03:39;8.20;;;4.18;;
40757;SDS011;26462;47.384;19.218;2023-02-18T01:06:08;6.13;;;2.92;;
40757;SDS011;26462;47.384;19.218;2023-02-18T01:08:37;7.63;;;3.45;;
40757;SDS011;26462;47.384;19.218;2023-02-18T01:11:06;7.43;;;3.20;;
40757;SDS011;26462;47.384;19.218;2023-02-18T01:13:35;7.53;;;3.10;;
40757;SDS011;26462;47.384;19.218;2023-02-18T01:16:05;6.60;;;2.90;;
40757;SDS011;26462;47.384;19.218;2023-02-18T01:18:33;7.60;;;3.25;;
40757;SDS011;26462;47.384;19.218;2023-02-18T01:21:03;7.57;;;3.00;;
40757;SDS011;26462;47.384;19.218;2023-02-18T01:23:38;6.70;;;2.58;;
40757;SDS011;26462;47.384;19.218;2023-02-18T01:28:36;5.40;;;2.35;;
40757;SDS011;26462;47.384;19.218;2023-02-18T01:31:05;6.63;;;2.97;;
40757;SDS011;26462;47.384;19.218;2023-02-18T01:33:35;4.38;;;1.90;;
40757;SDS011;26462;47.384;19.218;2023-02-18T01:36:08;3.92;;;2.05;;
40757;SDS011;26462;47.384;19.218;2023-02-18T01:38:37;7.60;;;3.03;;
40757;SDS011;26462;47.384;19.218;2023-02-18T01:41:05;4.95;;;2.58;;
40757;SDS011;26462;47.384;19.218;2023-02-18T01:43:32;6.63;;;2.53;;
40757;SDS011;26462;47.384;19.218;2023-02-18T01:48:37;6.40;;;3.15;;
40757;SDS011;26462;47.384;19.218;2023-02-18T01:51:16;6.10;;;2.20;;
40757;SDS011;26462;47.384;19.218;2023-02-18T01:59:32;5.22;;;2.03;;
40757;SDS011;26462;47.384;19.218;2023-02-18T02:02:03;3.78;;;1.73;;
40757;SDS011;26462;47.384;19.218;2023-02-18T02:04:34;5.97;;;2.40;;
40757;SDS011;26462;47.384;19.218;2023-02-18T02:07:01;6.35;;;2.92;;
40757;SDS011;26462;47.384;19.218;2023-02-18T02:09:29;5.82;;;2.17;;
40757;SDS011;26462;47.384;19.218;2023-02-18T02:15:02;5.15;;;1.77;;
40757;SDS011;26462;47.384;19.218;2023-02-18T02:23:56;3.28;;;1.17;;
40757;SDS011;26462;47.384;19.218;2023-02-18T02:26:57;2.72;;;1.08;;
40757;SDS011;26462;47.384;19.218;2023-02-18T02:35:26;3.50;;;1.00;;
40757;SDS011;26462;47.384;19.218;2023-02-18T02:40:51;2.42;;;1.00;;
40757;SDS011;26462;47.384;19.218;2023-02-18T02:43:27;4.55;;;1.55;;
40757;SDS011;26462;47.384;19.218;2023-02-18T02:46:05;3.40;;;1.00;;
40757;SDS011;26462;47.384;19.218;2023-02-18T02:54:12;1.65;;;0.30;;
40757;SDS011;26462;47.384;19.218;2023-02-18T02:56:40;0.63;;;0.20;;
40757;SDS011;26462;47.384;19.218;2023-02-18T02:59:15;0.88;;;0.30;;
40757;SDS011;26462;47.384;19.218;2023-02-18T03:04:38;1.50;;;0.20;;
40757;SDS011;26462;47.384;19.218;2023-02-18T03:10:28;4.38;;;0.25;;
40757;SDS011;26462;47.384;19.218;2023-02-18T03:13:28;1.80;;;0.20;;
40757;SDS011;26462;47.384;19.218;2023-02-18T03:21:57;1.45;;;0.30;;
40757;SDS011;26462;47.384;19.218;2023-02-18T03:24:29;1.13;;;0.50;;
40757;SDS011;26462;47.384;19.218;2023-02-18T03:29:35;1.10;;;0.30;;
40757;SDS011;26462;47.384;19.218;2023-02-18T03:32:04;1.38;;;0.20;;
40757;SDS011;26462;47.384;19.218;2023-02-18T03:34:36;0.50;;;0.13;;
40757;SDS011;26462;47.384;19.218;2023-02-18T03:37:06;0.60;;;0.30;;
40757;SDS011;26462;47.384;19.218;2023-02-18T03:39:36;1.23;;;0.20;;
40757;SDS011;26462;47.384;19.218;2023-02-18T03:42:07;1.40;;;0.10;;
40757;SDS011;26462;47.384;19.218;2023-02-18T03:44:35;1.92;;;0.20;;
40757;SDS011;26462;47.384;19.218;2023-02-18T03:47:02;0.88;;;0.10;;
40757;SDS011;26462;47.384;19.218;2023-02-18T03:49:30;1.05;;;0.10;;
40757;SDS011;26462;47.384;19.218;2023-02-18T03:51:58;0.80;;;0.28;;
40757;SDS011;26462;47.384;19.218;2023-02-18T03:54:25;1.75;;;0.10;;
40757;SDS011;26462;47.384;19.218;2023-02-18T03:56:53;0.60;;;0.17;;
40757;SDS011;26462;47.384;19.218;2023-02-18T03:59:20;0.85;;;0.20;;
40757;SDS011;26462;47.384;19.218;2023-02-18T04:01:48;2.05;;;0.20;;
40757;SDS011;26462;47.384;19.218;2023-02-18T04:04:15;4.40;;;0.35;;
40757;SDS011;26462;47.384;19.218;2023-02-18T04:06:43;1.10;;;0.30;;
40757;SDS011;26462;47.384;19.218;2023-02-18T04:09:10;1.17;;;0.10;;
40757;SDS011;26462;47.384;19.218;2023-02-18T04:11:38;1.85;;;0.30;;
40757;SDS011;26462;47.384;19.218;2023-02-18T04:14:06;2.75;;;0.60;;
40757;SDS011;26462;47.384;19.218;2023-02-18T04:16:34;1.30;;;0.20;;
40757;SDS011;26462;47.384;19.218;2023-02-18T04:19:02;4.00;;;0.20;;
40757;SDS011;26462;47.384;19.218;2023-02-18T04:21:29;0.77;;;0.20;;
40757;SDS011;26462;47.384;19.218;2023-02-18T04:23:57;2.33;;;0.22;;
40757;SDS011;26462;47.384;19.218;2023-02-18T04:26:25;1.02;;;0.30;;
40757;SDS011;26462;47.384;19.218;2023-02-18T04:28:52;0.88;;;0.20;;
40757;SDS011;26462;47.384;19.218;2023-02-18T04:31:20;1.42;;;0.60;;
40757;SDS011;26462;47.384;19.218;2023-02-18T04:33:47;2.22;;;0.30;;
40757;SDS011;26462;47.384;19.218;2023-02-18T04:36:15;1.13;;;0.30;;
40757;SDS011;26462;47.384;19.218;2023-02-18T04:38:42;1.23;;;0.40;;
40757;SDS011;26462;47.384;19.218;2023-02-18T04:41:09;2.17;;;0.47;;
40757;SDS011;26462;47.384;19.218;2023-02-18T04:43:38;1.05;;;0.30;;
40757;SDS011;26462;47.384;19.218;2023-02-18T04:46:05;1.23;;;0.47;;
40757;SDS011;26462;47.384;19.218;2023-02-18T04:48:34;1.05;;;0.40;;
40757;SDS011;26462;47.384;19.218;2023-02-18T04:51:01;2.33;;;0.45;;
40757;SDS011;26462;47.384;19.218;2023-02-18T04:53:29;2.05;;;0.38;;
40757;SDS011;26462;47.384;19.218;2023-02-18T04:55:56;2.33;;;0.45;;
40757;SDS011;26462;47.384;19.218;2023-02-18T04:58:25;2.42;;;0.45;;
40757;SDS011;26462;47.384;19.218;2023-02-18T05:00:52;1.50;;;0.52;;
40757;SDS011;26462;47.384;19.218;2023-02-18T05:03:20;3.28;;;0.60;;
40757;SDS011;26462;47.384;19.218;2023-02-18T05:05:48;6.85;;;1.50;;
40757;SDS011;26462;47.384;19.218;2023-02-18T05:08:15;2.75;;;0.68;;
40757;SDS011;26462;47.384;19.218;2023-02-18T05:10:42;3.28;;;0.90;;
40757;SDS011;26462;47.384;19.218;2023-02-18T05:13:09;3.72;;;0.90;;
40757;SDS011;26462;47.384;19.218;2023-02-18T05:15:36;2.63;;;0.68;;
40757;SDS011;26462;47.384;19.218;2023-02-18T05:18:04;2.45;;;1.00;;
40757;SDS011;26462;47.384;19.218;2023-02-18T05:20:32;3.75;;;1.23;;
40757;SDS011;26462;47.384;19.218;2023-02-18T05:22:59;3.70;;;1.23;;
40757;SDS011;26462;47.384;19.218;2023-02-18T05:25:26;13.85;;;5.32;;
40757;SDS011;26462;47.384;19.218;2023-02-18T05:27:53;8.93;;;3.85;;
40757;SDS011;26462;47.384;19.218;2023-02-18T05:30:20;6.53;;;2.95;;
40757;SDS011;26462;47.384;19.218;2023-02-18T05:32:48;10.15;;;4.30;;
40757;SDS011;26462;47.384;19.218;2023-02-18T05:35:16;3.42;;;1.13;;
40757;SDS011;26462;47.384;19.218;2023-02-18T05:37:43;4.32;;;1.63;;
40757;SDS011;26462;47.384;19.218;2023-02-18T05:40:10;5.05;;;1.00;;
40757;SDS011;26462;47.384;19.218;2023-02-18T05:42:38;2.55;;;1.02;;
40757;SDS011;26462;47.384;19.218;2023-02-18T05:45:05;4.20;;;0.93;;
40757;SDS011;26462;47.384;19.218;2023-02-18T05:47:32;2.60;;;0.70;;
40757;SDS011;26462;47.384;19.218;2023-02-18T05:50:00;3.17;;;1.10;;
40757;SDS011;26462;47.384;19.218;2023-02-18T05:52:27;4.55;;;1.30;;
40757;SDS011;26462;47.384;19.218;2023-02-18T05:54:54;2.70;;;1.10;;
40757;SDS011;26462;47.384;19.218;2023-02-18T05:57:21;2.90;;;0.98;;
40757;SDS011;26462;47.384;19.218;2023-02-18T05:59:48;3.20;;;0.90;;
40757;SDS011;26462;47.384;19.218;2023-02-18T06:02:16;1.48;;;0.60;;
40757;SDS011;26462;47.384;19.218;2023-02-18T06:04:43;2.08;;;0.65;;
40757;SDS011;26462;47.384;19.218;2023-02-18T06:07:11;1.63;;;0.60;;
40757;SDS011;26462;47.384;19.218;2023-02-18T06:09:38;2.70;;;0.90;;
40757;SDS011;26462;47.384;19.218;2023-02-18T06:12:05;3.00;;;0.80;;
40757;SDS011;26462;47.384;19.218;2023-02-18T06:14:32;2.50;;;0.40;;
40757;SDS011;26462;47.384;19.218;2023-02-18T06:16:59;1.13;;;0.30;;
40757;SDS011;26462;47.384;19.218;2023-02-18T06:19:26;1.73;;;0.60;;
40757;SDS011;26462;47.384;19.218;2023-02-18T06:21:53;2.30;;;0.40;;
40757;SDS011;26462;47.384;19.218;2023-02-18T06:24:21;1.80;;;0.60;;
40757;SDS011;26462;47.384;19.218;2023-02-18T06:26:48;1.73;;;0.82;;
40757;SDS011;26462;47.384;19.218;2023-02-18T06:29:16;0.85;;;0.50;;
40757;SDS011;26462;47.384;19.218;2023-02-18T06:31:43;1.73;;;0.40;;
40757;SDS011;26462;47.384;19.218;2023-02-18T06:34:10;2.47;;;0.40;;
40757;SDS011;26462;47.384;19.218;2023-02-18T06:36:37;0.70;;;0.30;;
40757;SDS011;26462;47.384;19.218;2023-02-18T06:39:05;2.63;;;0.30;;
40757;SDS011;26462;47.384;19.218;2023-02-18T06:41:33;0.90;;;0.30;;
40757;SDS011;26462;47.384;19.218;2023-02-18T06:44:00;1.15;;;0.25;;
40757;SDS011;26462;47.384;19.218;2023-02-18T06:46:27;1.80;;;1.13;;
40757;SDS011;26462;47.384;19.218;2023-02-18T06:48:55;3.55;;;2.00;;
40757;SDS011;26462;47.384;19.218;2023-02-18T06:51:23;5.20;;;3.03;;
40757;SDS011;26462;47.384;19.218;2023-02-18T06:53:50;3.92;;;2.35;;
40757;SDS011;26462;47.384;19.218;2023-02-18T06:56:17;5.63;;;2.72;;
40757;SDS011;26462;47.384;19.218;2023-02-18T06:58:44;1.63;;;0.60;;
40757;SDS011;26462;47.384;19.218;2023-02-18T07:01:11;2.00;;;0.82;;
40757;SDS011;26462;47.384;19.218;2023-02-18T07:03:38;5.20;;;1.30;;
40757;SDS011;26462;47.384;19.218;2023-02-18T07:06:06;5.60;;;2.05;;
40757;SDS011;26462;47.384;19.218;2023-02-18T07:08:34;6.07;;;1.35;;
40757;SDS011;26462;47.384;19.218;2023-02-18T07:11:02;7.85;;;2.67;;
40757;SDS011;26462;47.384;19.218;2023-02-18T07:13:30;8.30;;;2.60;;
40757;SDS011;26462;47.384;19.218;2023-02-18T07:15:57;4.07;;;1.25;;
40757;SDS011;26462;47.384;19.218;2023-02-18T07:18:24;3.53;;;1.23;;
40757;SDS011;26462;47.384;19.218;2023-02-18T07:20:51;4.10;;;1.83;;
40757;SDS011;26462;47.384;19.218;2023-02-18T07:23:18;4.28;;;1.67;;
40757;SDS011;26462;47.384;19.218;2023-02-18T07:25:45;5.05;;;3.08;;
40757;SDS011;26462;47.384;19.218;2023-02-18T07:28:13;2.88;;;1.40;;
40757;SDS011;26462;47.384;19.218;2023-02-18T07:30:40;2.25;;;0.90;;
40757;SDS011;26462;47.384;19.218;2023-02-18T07:33:07;5.03;;;2.17;;
40757;SDS011;26462;47.384;19.218;2023-02-18T07:35:34;2.88;;;1.48;;
40757;SDS011;26462;47.384;19.218;2023-02-18T07:38:02;2.78;;;1.30;;
40757;SDS011;26462;47.384;19.218;2023-02-18T07:40:29;181.00;;;68.75;;
40757;SDS011;26462;47.384;19.218;2023-02-18T07:42:57;5.47;;;3.17;;
40757;SDS011;26462;47.384;19.218;2023-02-18T07:45:24;7.03;;;3.00;;
40757;SDS011;26462;47.384;19.218;2023-02-18T07:47:51;3.85;;;1.48;;
40757;SDS011;26462;47.384;19.218;2023-02-18T07:50:18;7.07;;;3.22;;
40757;SDS011;26462;47.384;19.218;2023-02-18T07:52:45;6.90;;;3.00;;
40757;SDS011;26462;47.384;19.218;2023-02-18T07:55:12;2.50;;;1.00;;
40757;SDS011;26462;47.384;19.218;2023-02-18T07:57:40;4.32;;;1.73;;
40757;SDS011;26462;47.384;19.218;2023-02-18T08:00:22;5.88;;;2.83;;
40757;SDS011;26462;47.384;19.218;2023-02-18T08:02:50;7.03;;;3.85;;
40757;SDS011;26462;47.384;19.218;2023-02-18T08:05:17;14.57;;;5.55;;
40757;SDS011;26462;47.384;19.218;2023-02-18T08:07:44;2.78;;;1.30;;
40757;SDS011;26462;47.384;19.218;2023-02-18T08:10:11;15.93;;;4.85;;
40757;SDS011;26462;47.384;19.218;2023-02-18T08:12:38;3.65;;;1.52;;
40757;SDS011;26462;47.384;19.218;2023-02-18T08:15:05;1.67;;;0.47;;
40757;SDS011;26462;47.384;19.218;2023-02-18T08:17:33;3.72;;;1.80;;
40757;SDS011;26462;47.384;19.218;2023-02-18T08:20:00;2.45;;;0.40;;
40757;SDS011;26462;47.384;19.218;2023-02-18T08:22:27;3.00;;;1.20;;
40757;SDS011;26462;47.384;19.218;2023-02-18T08:24:54;8.52;;;5.03;;
40757;SDS011;26462;47.384;19.218;2023-02-18T08:27:24;6.05;;;2.33;;
40757;SDS011;26462;47.384;19.218;2023-02-18T08:29:51;29.70;;;14.73;;
40757;SDS011;26462;47.384;19.218;2023-02-18T08:32:18;16.38;;;6.82;;
40757;SDS011;26462;47.384;19.218;2023-02-18T08:34:46;4.13;;;1.90;;
40757;SDS011;26462;47.384;19.218;2023-02-18T08:37:13;1.60;;;0.63;;
40757;SDS011;26462;47.384;19.218;2023-02-18T08:39:40;5.93;;;3.58;;
40757;SDS011;26462;47.384;19.218;2023-02-18T08:42:07;1.70;;;0.85;;
40757;SDS011;26462;47.384;19.218;2023-02-18T08:44:34;5.43;;;2.13;;
40757;SDS011;26462;47.384;19.218;2023-02-18T08:47:01;9.07;;;4.45;;
40757;SDS011;26462;47.384;19.218;2023-02-18T08:49:48;8.50;;;3.80;;
40757;SDS011;26462;47.384;19.218;2023-02-18T08:52:15;7.93;;;2.75;;
40757;SDS011;26462;47.384;19.218;2023-02-18T08:54:43;1.27;;;0.73;;
40757;SDS011;26462;47.384;19.218;2023-02-18T08:57:10;1.30;;;0.40;;
40757;SDS011;26462;47.384;19.218;2023-02-18T08:59:37;1.20;;;0.38;;
40757;SDS011;26462;47.384;19.218;2023-02-18T09:02:04;13.80;;;6.88;;
40757;SDS011;26462;47.384;19.218;2023-02-18T09:04:32;16.50;;;7.50;;
40757;SDS011;26462;47.384;19.218;2023-02-18T09:06:59;44.05;;;20.83;;
40757;SDS011;26462;47.384;19.218;2023-02-18T09:09:26;36.53;;;18.10;;
40757;SDS011;26462;47.384;19.218;2023-02-18T09:11:53;37.67;;;17.23;;
40757;SDS011;26462;47.384;19.218;2023-02-18T09:14:20;49.55;;;23.42;;
40757;SDS011;26462;47.384;19.218;2023-02-18T09:16:48;14.00;;;8.68;;
40757;SDS011;26462;47.384;19.218;2023-02-18T09:19:16;10.13;;;6.93;;
40757;SDS011;26462;47.384;19.218;2023-02-18T09:21:44;3.60;;;2.35;;
40757;SDS011;26462;47.384;19.218;2023-02-18T09:24:11;2.20;;;1.58;;
40757;SDS011;26462;47.384;19.218;2023-02-18T09:26:38;2.13;;;1.70;;
40757;SDS011;26462;47.384;19.218;2023-02-18T09:29:06;1.58;;;0.73;;
40757;SDS011;26462;47.384;19.218;2023-02-18T09:31:33;4.53;;;1.50;;
40757;SDS011;26462;47.384;19.218;2023-02-18T09:34:01;0.77;;;0.40;;
40757;SDS011;26462;47.384;19.218;2023-02-18T09:36:28;1.88;;;0.35;;
40757;SDS011;26462;47.384;19.218;2023-02-18T09:38:56;1.08;;;0.50;;
40757;SDS011;26462;47.384;19.218;2023-02-18T09:41:28;1.88;;;0.55;;
40757;SDS011;26462;47.384;19.218;2023-02-18T09:44:22;0.95;;;0.28;;
40757;SDS011;26462;47.384;19.218;2023-02-18T09:46:49;1.35;;;0.30;;
40757;SDS011;26462;47.384;19.218;2023-02-18T09:49:21;18.73;;;6.18;;
40757;SDS011;26462;47.384;19.218;2023-02-18T09:51:52;3.03;;;2.10;;
40757;SDS011;26462;47.384;19.218;2023-02-18T09:54:20;6.15;;;3.53;;
40757;SDS011;26462;47.384;19.218;2023-02-18T09:56:48;8.32;;;5.50;;
40757;SDS011;26462;47.384;19.218;2023-02-18T09:59:18;17.13;;;10.45;;
40757;SDS011;26462;47.384;19.218;2023-02-18T10:01:48;6.75;;;4.40;;
40757;SDS011;26462;47.384;19.218;2023-02-18T10:04:18;2.38;;;1.05;;
40757;SDS011;26462;47.384;19.218;2023-02-18T10:07:07;3.85;;;0.98;;
40757;SDS011;26462;47.384;19.218;2023-02-18T10:09:47;4.18;;;2.95;;
40757;SDS011;26462;47.384;19.218;2023-02-18T10:12:19;1.55;;;0.40;;
40757;SDS011;26462;47.384;19.218;2023-02-18T10:14:51;0.80;;;0.43;;
40757;SDS011;26462;47.384;19.218;2023-02-18T10:17:29;2.20;;;2.00;;
40757;SDS011;26462;47.384;19.218;2023-02-18T10:19:58;0.82;;;0.63;;
40757;SDS011;26462;47.384;19.218;2023-02-18T10:22:29;1.80;;;0.80;;
40757;SDS011;26462;47.384;19.218;2023-02-18T10:24:57;3.97;;;1.70;;
40757;SDS011;26462;47.384;19.218;2023-02-18T10:27:29;0.77;;;0.30;;
40757;SDS011;26462;47.384;19.218;2023-02-18T10:30:08;1.35;;;0.35;;
40757;SDS011;26462;47.384;19.218;2023-02-18T10:32:45;5.75;;;2.20;;
40757;SDS011;26462;47.384;19.218;2023-02-18T10:35:28;2.60;;;0.32;;
40757;SDS011;26462;47.384;19.218;2023-02-18T10:46:18;0.20;;;0.10;;
40757;SDS011;26462;47.384;19.218;2023-02-18T10:51:42;0.75;;;0.28;;
40757;SDS011;26462;47.384;19.218;2023-02-18T10:54:14;1.42;;;0.28;;
40757;SDS011;26462;47.384;19.218;2023-02-18T10:56:48;3.00;;;0.93;;
40757;SDS011;26462;47.384;19.218;2023-02-18T11:01:56;0.45;;;0.20;;
40757;SDS011;26462;47.384;19.218;2023-02-18T11:04:43;0.82;;;0.30;;
40757;SDS011;26462;47.384;19.218;2023-02-18T11:07:12;1.88;;;0.20;;
40757;SDS011;26462;47.384;19.218;2023-02-18T11:09:45;2.55;;;0.70;;
40757;SDS011;26462;47.384;19.218;2023-02-18T11:12:16;3.55;;;0.43;;
40757;SDS011;26462;47.384;19.218;2023-02-18T11:14:48;1.88;;;0.73;;
40757;SDS011;26462;47.384;19.218;2023-02-18T11:17:30;19.85;;;9.18;;
40757;SDS011;26462;47.384;19.218;2023-02-18T11:19:59;4.45;;;1.38;;
40757;SDS011;26462;47.384;19.218;2023-02-18T11:22:33;15.35;;;9.70;;
40757;SDS011;26462;47.384;19.218;2023-02-18T11:27:57;4.93;;;2.53;;
40757;SDS011;26462;47.384;19.218;2023-02-18T11:33:19;4.28;;;2.30;;
40757;SDS011;26462;47.384;19.218;2023-02-18T11:35:52;3.72;;;2.03;;
40757;SDS011;26462;47.384;19.218;2023-02-18T11:40:54;5.82;;;1.85;;
40757;SDS011;26462;47.384;19.218;2023-02-18T11:43:23;4.43;;;2.72;;
40757;SDS011;26462;47.384;19.218;2023-02-18T11:48:35;3.22;;;1.42;;
40757;SDS011;26462;47.384;19.218;2023-02-18T11:51:02;3.00;;;1.20;;
40757;SDS011;26462;47.384;19.218;2023-02-18T11:53:33;2.58;;;1.30;;
40757;SDS011;26462;47.384;19.218;2023-02-18T11:56:03;4.97;;;2.75;;
40757;SDS011;26462;47.384;19.218;2023-02-18T11:58:39;2.47;;;1.05;;
40757;SDS011;26462;47.384;19.218;2023-02-18T12:01:13;3.05;;;1.33;;
40757;SDS011;26462;47.384;19.218;2023-02-18T12:03:54;3.08;;;1.45;;
40757;SDS011;26462;47.384;19.218;2023-02-18T12:06:24;5.00;;;2.13;;
40757;SDS011;26462;47.384;19.218;2023-02-18T12:08:59;3.83;;;2.80;;
40757;SDS011;26462;47.384;19.218;2023-02-18T12:11:31;2.58;;;0.73;;
40757;SDS011;26462;47.384;19.218;2023-02-18T12:14:08;5.43;;;3.15;;
40757;SDS011;26462;47.384;19.218;2023-02-18T12:27:54;1.70;;;0.60;;
40757;SDS011;26462;47.384;19.218;2023-02-18T12:38:53;1.00;;;0.35;;
40757;SDS011;26462;47.384;19.218;2023-02-18T12:44:00;1.20;;;0.50;;
40757;SDS011;26462;47.384;19.218;2023-02-18T12:46:55;1.80;;;0.63;;
40757;SDS011;26462;47.384;19.218;2023-02-18T12:55:21;0.75;;;0.40;;
40757;SDS011;26462;47.384;19.218;2023-02-18T13:17:23;0.50;;;0.10;;
40757;SDS011;26462;47.384;19.218;2023-02-18T13:19:58;1.13;;;0.10;;
40757;SDS011;26462;47.384;19.218;2023-02-18T13:22:34;1.23;;;0.20;;
40757;SDS011;26462;47.384;19.218;2023-02-18T13:25:02;0.88;;;0.10;;
40757;SDS011;26462;47.384;19.218;2023-02-18T13:30:25;0.65;;;0.17;;
40757;SDS011;26462;47.384;19.218;2023-02-18T13:33:10;1.25;;;0.25;;
40757;SDS011;26462;47.384;19.218;2023-02-18T13:41:24;1.10;;;0.10;;
40757;SDS011;26462;47.384;19.218;2023-02-18T13:43:53;0.47;;;0.20;;
40757;SDS011;26462;47.384;19.218;2023-02-18T13:46:23;0.10;;;0.00;;
40757;SDS011;26462;47.384;19.218;2023-02-18T13:48:52;4.10;;;0.15;;
40757;SDS011;26462;47.384;19.218;2023-02-18T13:51:26;1.58;;;1.45;;
40757;SDS011;26462;47.384;19.218;2023-02-18T13:54:31;0.55;;;0.10;;
40757;SDS011;26462;47.384;19.218;2023-02-18T13:56:57;0.35;;;0.10;;
40757;SDS011;26462;47.384;19.218;2023-02-18T13:59:36;2.38;;;0.43;;
40757;SDS011;26462;47.384;19.218;2023-02-18T14:07:24;19.27;;;7.72;;
40757;SDS011;26462;47.384;19.218;2023-02-18T14:20:42;17.85;;;9.23;;
40757;SDS011;26462;47.384;19.218;2023-02-18T14:25:50;31.05;;;19.05;;
40757;SDS011;26462;47.384;19.218;2023-02-18T14:50:54;36.10;;;15.52;;
40757;SDS011;26462;47.384;19.218;2023-02-18T14:53:25;26.67;;;12.52;;
40757;SDS011;26462;47.384;19.218;2023-02-18T14:55:58;30.70;;;15.98;;
40757;SDS011;26462;47.384;19.218;2023-02-18T14:58:33;33.53;;;15.25;;
40757;SDS011;26462;47.384;19.218;2023-02-18T15:01:28;47.20;;;26.15;;
40757;SDS011;26462;47.384;19.218;2023-02-18T15:03:57;45.80;;;24.23;;
40757;SDS011;26462;47.384;19.218;2023-02-18T15:06:30;44.38;;;25.38;;
40757;SDS011;26462;47.384;19.218;2023-02-18T15:09:17;47.97;;;25.27;;
40757;SDS011;26462;47.384;19.218;2023-02-18T15:11:47;36.08;;;17.10;;
40757;SDS011;26462;47.384;19.218;2023-02-18T15:14:39;42.90;;;21.50;;
40757;SDS011;26462;47.384;19.218;2023-02-18T15:17:13;40.65;;;19.00;;
40757;SDS011;26462;47.384;19.218;2023-02-18T15:19:56;40.10;;;18.17;;
40757;SDS011;26462;47.384;19.218;2023-02-18T15:22:32;37.83;;;17.95;;
40757;SDS011;26462;47.384;19.218;2023-02-18T15:25:01;40.47;;;18.05;;
40757;SDS011;26462;47.384;19.218;2023-02-18T15:27:33;49.13;;;24.17;;
40757;SDS011;26462;47.384;19.218;2023-02-18T15:32:55;67.40;;;37.33;;
40757;SDS011;26462;47.384;19.218;2023-02-18T15:35:29;55.03;;;29.02;;
40757;SDS011;26462;47.384;19.218;2023-02-18T15:37:59;60.63;;;30.83;;
40757;SDS011;26462;47.384;19.218;2023-02-18T15:40:30;53.47;;;27.52;;
40757;SDS011;26462;47.384;19.218;2023-02-18T15:43:01;41.20;;;20.67;;
40757;SDS011;26462;47.384;19.218;2023-02-18T15:48:12;41.20;;;19.52;;
40757;SDS011;26462;47.384;19.218;2023-02-18T15:50:55;46.03;;;20.48;;
40757;SDS011;26462;47.384;19.218;2023-02-18T15:53:40;97.60;;;44.95;;
40757;SDS011;26462;47.384;19.218;2023-02-18T15:56:14;104.22;;;43.20;;
40757;SDS011;26462;47.384;19.218;2023-02-18T15:58:47;193.55;;;71.80;;
40757;SDS011;26462;47.384;19.218;2023-02-18T16:01:25;285.80;;;108.68;;
40757;SDS011;26462;47.384;19.218;2023-02-18T16:03:55;287.77;;;104.97;;
40757;SDS011;26462;47.384;19.218;2023-02-18T16:06:24;100.97;;;42.35;;
40757;SDS011;26462;47.384;19.218;2023-02-18T16:09:06;71.97;;;31.20;;
40757;SDS011;26462;47.384;19.218;2023-02-18T16:11:46;105.22;;;62.38;;
40757;SDS011;26462;47.384;19.218;2023-02-18T16:14:23;68.68;;;30.88;;
40757;SDS011;26462;47.384;19.218;2023-02-18T16:25:16;72.93;;;33.75;;
40757;SDS011;26462;47.384;19.218;2023-02-18T16:32:51;54.00;;;25.05;;
40757;SDS011;26462;47.384;19.218;2023-02-18T16:35:21;57.67;;;27.55;;
40757;SDS011;26462;47.384;19.218;2023-02-18T16:37:50;51.85;;;24.23;;
40757;SDS011;26462;47.384;19.218;2023-02-18T16:43:21;55.80;;;23.95;;
40757;SDS011;26462;47.384;19.218;2023-02-18T16:45:54;54.67;;;24.13;;
40757;SDS011;26462;47.384;19.218;2023-02-18T16:48:45;56.13;;;23.88;;
40757;SDS011;26462;47.384;19.218;2023-02-18T16:53:44;69.40;;;30.70;;
40757;SDS011;26462;47.384;19.218;2023-02-18T16:56:16;92.80;;;40.08;;
40757;SDS011;26462;47.384;19.218;2023-02-18T16:58:45;71.15;;;29.15;;
40757;SDS011;26462;47.384;19.218;2023-02-18T17:01:23;95.40;;;39.97;;
40757;SDS011;26462;47.384;19.218;2023-02-18T17:03:55;78.57;;;34.92;;
40757;SDS011;26462;47.384;19.218;2023-02-18T17:06:27;146.05;;;60.50;;
40757;SDS011;26462;47.384;19.218;2023-02-18T17:08:56;141.40;;;58.90;;
40757;SDS011;26462;47.384;19.218;2023-02-18T17:11:28;93.32;;;41.63;;
40757;SDS011;26462;47.384;19.218;2023-02-18T17:13:58;78.43;;;35.53;;
40757;SDS011;26462;47.384;19.218;2023-02-18T17:16:26;76.70;;;35.38;;
40757;SDS011;26462;47.384;19.218;2023-02-18T17:18:55;69.60;;;31.10;;
40757;SDS011;26462;47.384;19.218;2023-02-18T17:21:23;73.10;;;30.75;;
40757;SDS011;26462;47.384;19.218;2023-02-18T17:23:51;68.03;;;26.77;;
40757;SDS011;26462;47.384;19.218;2023-02-18T17:26:23;73.22;;;28.25;;
40757;SDS011;26462;47.384;19.218;2023-02-18T17:28:56;74.80;;;30.30;;
40757;SDS011;26462;47.384;19.218;2023-02-18T17:31:26;69.80;;;29.38;;
40757;SDS011;26462;47.384;19.218;2023-02-18T17:33:57;69.22;;;31.38;;
40757;SDS011;26462;47.384;19.218;2023-02-18T17:36:28;77.68;;;36.45;;
40757;SDS011;26462;47.384;19.218;2023-02-18T17:38:56;73.45;;;30.70;;
40757;SDS011;26462;47.384;19.218;2023-02-18T17:41:28;71.22;;;30.45;;
40757;SDS011;26462;47.384;19.218;2023-02-18T17:43:56;68.28;;;26.38;;
40757;SDS011;26462;47.384;19.218;2023-02-18T17:46:23;69.38;;;27.77;;
40757;SDS011;26462;47.384;19.218;2023-02-18T17:48:52;71.10;;;27.80;;
40757;SDS011;26462;47.384;19.218;2023-02-18T17:51:25;113.45;;;44.83;;
40757;SDS011;26462;47.384;19.218;2023-02-18T17:53:55;83.05;;;34.55;;
40757;SDS011;26462;47.384;19.218;2023-02-18T17:56:23;97.95;;;36.22;;
40757;SDS011;26462;47.384;19.218;2023-02-18T17:58:51;93.57;;;37.58;;
40757;SDS011;26462;47.384;19.218;2023-02-18T18:01:20;82.20;;;32.35;;